Menomonie, WI

8:47 PM CST on February 11, 2016 (GMT -0600)
Elmwood Park | | Change Station
CLOSE
Current Station
Personal Weather Station
Location: Menomonie, WI
Elevation: 876 ft
Nearby Weather Stations

Elev 876 ft 44.88 °N, 91.91 °W | Updated 13 minutes ago

Overcast
Overcast
14.2 °F
Feels Like 14 °F
N
0.0
Wind Variable Wind from SSW

Today
High -- | Low -- °F
--% Chance of Precip.
Yesterday
High -- | Low -- °F
Precip. -- in
Pressure 30.22 in
Visibility 10.0 miles
Clouds Mostly Cloudy 4800 ft
Overcast 6000 ft
Windchill 14 °F
Dew Point 4 °F
Humidity 62%
Rainfall 0.00 in
Snow Depth Not available.
7:14 AM 5:29 PM
Waxing Crescent, 16% visible
METAR KLUM 120235Z AUTO 22005KT 10SM BKN048 OVC060 M09/M17 A3022 RMK AO2 T10901166
Pressure 30.22 in
Visibility 10.0 miles
Clouds Mostly Cloudy 4800 ft
Overcast 6000 ft
Windchill 14 °F
Dew Point 4 °F
Humidity 62%
Rainfall 0.00 in
Snow Depth Not available.
7:14 AM 5:29 PM
Waxing Crescent, 16% visible
METAR KLUM 120235Z AUTO 22005KT 10SM BKN048 OVC060 M09/M17 A3022 RMK AO2 T10901166

10-Day Weather Forecast

Almanac

Astronomy

Feb. 11, 2016 Rise Set
Actual Time
Civil Twilight
Nautical Twilight
Astronomical Twilight
Moon
Length of Visible Light
Length of Day
Tomorrow will be .
, % of the Moon is Illuminated

Today's Extremes

State Highs State Lows

Community

WunderPhotos

Upload Photos

1,892,226 photos uploaded!

WunderBlog® & News

Nearby

Air Quality

  Air Quality AQ Index Pollutant
Not available.

Snow Depth

Station Depth Elevation

Earthquake Activity

City Distance Mag. Time & Date
Minimum magnitude displayed is 2.5.

Coastal Water Temperatures

Place Temperature

Stations

Nearby Weather Stations

Station Location Temp. Windchill Dew Point Humidity Wind Precip. Elev Updated Type
                   

Watches & Warnings

There are currently no watches in effect.